Time;durP1;ratioP1;P1;durP2;ratioP2;P2;SDS_P1;SDS_P2;PMS_P1;PMS_P2;Temp;Humidity;BMP_temperature;BMP_pressure;BME280_temperature;BME280_humidity;BME280_pressure;Samples;Min_cycle;Max_cycle;Signal;HPM_P1;HPM_P2
2022/04/07 00:01:23;;;;;;;9.75;3.15;;;;;;;8.77;87.31;99086.84;5045476;28;20033;-72
2022/04/07 00:03:48;;;;;;;6.80;2.42;;;;;;;8.77;87.66;99082.34;5047601;28;20021;-72
2022/04/07 00:06:13;;;;;;;8.43;2.58;;;;;;;8.78;87.06;99078.66;5028097;28;20047;-72
2022/04/07 00:08:39;;;;;;;15.93;3.47;;;;;;;8.78;86.62;99069.78;5040315;28;20037;-72
2022/04/07 00:11:06;;;;;;;8.65;2.63;;;;;;;8.78;87.05;99069.78;5040750;28;20071;-72
2022/04/07 00:13:31;;;;;;;5.78;2.70;;;;;;;8.76;87.31;99053.88;5048516;28;20049;-72
2022/04/07 00:15:58;;;;;;;5.35;2.05;;;;;;;8.73;86.52;99052.31;5049354;28;20075;-72
2022/04/07 00:18:24;;;;;;;8.10;2.22;;;;;;;8.73;86.64;99065.69;5051288;28;20056;-72
2022/04/07 00:20:52;;;;;;;9.27;2.97;;;;;;;8.73;86.41;99056.84;5053060;28;20103;-72
2022/04/07 00:23:17;;;;;;;11.95;2.40;;;;;;;8.73;86.30;99046.94;5050601;28;20051;-72
2022/04/07 00:25:42;;;;;;;8.05;2.25;;;;;;;8.75;86.36;99052.16;5051560;28;20024;-72
2022/04/07 00:28:08;;;;;;;11.18;2.95;;;;;;;8.76;85.94;99045.00;5054656;28;20037;-72
2022/04/07 00:30:34;;;;;;;7.40;2.33;;;;;;;8.77;86.35;99038.63;5054362;28;20051;-72
2022/04/07 00:32:59;;;;;;;11.73;2.88;;;;;;;8.77;85.74;99027.91;5052427;28;20033;-72
2022/04/07 00:35:26;;;;;;;9.35;2.97;;;;;;;8.77;86.73;99036.81;5052060;28;20033;-72
2022/04/07 00:37:51;;;;;;;9.60;2.65;;;;;;;8.78;86.66;99021.56;5047865;28;20020;-72
2022/04/07 00:40:18;;;;;;;8.57;3.00;;;;;;;8.75;86.58;99006.63;5053175;28;20046;-72
2022/04/07 00:42:48;;;;;;;12.05;2.63;;;;;;;8.74;87.40;99000.44;5038962;28;20033;-72
2022/04/07 00:45:14;;;;;;;12.40;3.00;;;;;;;8.74;86.90;99011.16;5043409;28;20552;-72
2022/04/07 00:47:40;;;;;;;11.95;3.10;;;;;;;8.74;86.11;98991.53;5054127;28;20029;-72
2022/04/07 00:50:06;;;;;;;13.45;3.40;;;;;;;8.75;86.74;98998.59;5052933;28;20388;-72
2022/04/07 00:52:32;;;;;;;10.32;3.15;;;;;;;8.73;87.32;98993.38;5053084;28;20021;-72
2022/04/07 00:54:58;;;;;;;11.60;2.92;;;;;;;8.73;87.91;98980.00;5052542;28;20373;-72
2022/04/07 00:57:24;;;;;;;10.90;3.30;;;;;;;8.72;88.04;98989.00;5053386;28;20380;-72
2022/04/07 00:59:49;;;;;;;14.63;3.53;;;;;;;8.71;88.12;98989.16;5052672;28;20033;-72
2022/04/07 01:02:14;;;;;;;11.13;3.17;;;;;;;8.71;88.51;98983.81;5041056;28;20044;-72
2022/04/07 01:04:40;;;;;;;19.10;3.95;;;;;;;8.69;89.26;98989.31;5044983;28;20022;-72
2022/04/07 01:07:07;;;;;;;11.73;3.10;;;;;;;8.68;89.04;98968.03;5040492;28;20451;-72
2022/04/07 01:09:33;;;;;;;11.80;2.85;;;;;;;8.65;89.91;98968.31;5048986;28;20118;-72
2022/04/07 01:11:58;;;;;;;14.43;3.47;;;;;;;8.63;90.44;98960.44;5053317;28;20060;-72
2022/04/07 01:14:23;;;;;;;12.13;3.55;;;;;;;8.61;90.13;98962.44;5035939;28;20733;-72
2022/04/07 01:16:48;;;;;;;9.65;2.88;;;;;;;8.60;89.79;98966.09;5044589;28;20036;-72
2022/04/07 01:19:14;;;;;;;10.95;3.13;;;;;;;8.58;89.95;98962.72;5051417;28;20035;-72
2022/04/07 01:21:39;;;;;;;12.15;3.10;;;;;;;8.57;89.84;98953.00;5053285;28;20031;-73
2022/04/07 01:24:09;;;;;;;11.30;3.63;;;;;;;8.56;89.45;98945.94;5034693;28;20029;-73
2022/04/07 01:26:46;;;;;;;14.68;3.50;;;;;;;8.56;89.03;98930.75;5047384;28;20036;-73
2022/04/07 01:29:13;;;;;;;8.88;3.05;;;;;;;8.56;88.57;98930.75;5052251;28;20497;-73
2022/04/07 01:31:39;;;;;;;11.80;3.22;;;;;;;8.57;88.41;98921.69;5040496;28;20039;-73
2022/04/07 01:34:09;;;;;;;16.73;3.67;;;;;;;8.57;88.38;98918.19;5051183;28;20028;-73
2022/04/07 01:36:36;;;;;;;;;;;;;;;8.62;87.89;98893.66;5053807;28;20029;-73
2022/04/07 01:39:03;;;;;;;10.55;2.70;;;;;;;8.61;87.38;98908.88;5053379;28;20368;-73
2022/04/07 01:41:28;;;;;;;14.27;3.60;;;;;;;8.62;87.70;98896.31;5051379;28;20108;-73
2022/04/07 01:43:56;;;;;;;12.05;2.80;;;;;;;8.62;87.35;98881.09;5051916;28;20112;-73
2022/04/07 01:46:23;;;;;;;15.50;3.65;;;;;;;8.62;88.00;98878.41;5053057;28;20025;-73
2022/04/07 01:48:50;;;;;;;11.75;3.33;;;;;;;8.61;87.90;98876.75;5053227;28;20422;-73
2022/04/07 01:51:16;;;;;;;13.60;3.20;;;;;;;8.60;87.79;98875.06;5050573;28;20041;-73
2022/04/07 01:53:42;;;;;;;8.27;2.80;;;;;;;8.62;87.72;98883.75;5049496;28;20472;-73
2022/04/07 01:56:08;;;;;;;13.98;2.90;;;;;;;8.64;87.65;98875.59;5046997;28;20080;-73
2022/04/07 01:58:35;;;;;;;10.27;3.63;;;;;;;8.64;87.84;98870.22;5051472;28;20021;-73
2022/04/07 02:01:00;;;;;;;12.48;3.63;;;;;;;8.63;88.01;98857.84;5042192;28;20143;-73
2022/04/07 02:03:25;;;;;;;12.65;3.03;;;;;;;8.65;88.06;98871.91;5051513;28;20104;-73
2022/04/07 02:05:51;;;;;;;15.27;3.63;;;;;;;8.64;88.43;98865.75;5051997;28;20029;-73
2022/04/07 02:08:16;;;;;;;16.10;3.13;;;;;;;8.65;88.08;98867.41;5042917;28;20025;-73
2022/04/07 02:10:41;;;;;;;12.27;3.50;;;;;;;8.64;88.29;98860.38;5050798;28;20522;-73
2022/04/07 02:13:07;;;;;;;13.95;3.38;;;;;;;8.64;88.32;98849.66;5051330;28;20029;-73
2022/04/07 02:15:32;;;;;;;14.68;3.83;;;;;;;8.62;88.65;98854.31;5052382;28;20490;-73
2022/04/07 02:17:57;;;;;;;14.70;3.42;;;;;;;8.61;88.37;98855.31;5038521;28;20033;-73
2022/04/07 02:20:23;;;;;;;10.98;3.30;;;;;;;8.60;88.57;98853.63;5047246;28;20028;-73
2022/04/07 02:22:48;;;;;;;14.40;3.65;;;;;;;8.58;88.08;98831.53;5051284;28;20502;-73
2022/04/07 02:25:13;;;;;;;9.88;3.38;;;;;;;8.61;87.36;98839.25;5052078;28;20033;-73
2022/04/07 02:27:40;;;;;;;14.30;3.20;;;;;;;8.63;87.50;98842.63;5051871;28;20033;-73
2022/04/07 02:30:11;;;;;;;13.65;3.67;;;;;;;8.65;87.29;98835.25;5035363;28;20403;-73
2022/04/07 02:32:37;;;;;;;11.48;3.33;;;;;;;8.67;87.19;98837.81;5050047;28;20120;-73
2022/04/07 02:35:02;;;;;;;12.90;3.00;;;;;;;8.67;86.91;98843.19;5049815;28;20112;-73
2022/04/07 02:37:28;;;;;;;16.98;3.78;;;;;;;8.68;86.44;98829.63;5042064;28;20033;-73
2022/04/07 02:39:55;;;;;;;13.38;3.15;;;;;;;8.69;86.16;98825.94;5050558;28;20385;-73
2022/04/07 02:42:20;;;;;;;12.25;2.85;;;;;;;8.71;85.90;98823.97;5049659;28;20395;-73
2022/04/07 02:44:46;;;;;;;11.82;3.13;;;;;;;8.72;85.92;98806.88;5052309;28;20024;-73
2022/04/07 02:47:11;;;;;;;13.88;3.90;;;;;;;8.74;85.38;98807.59;5044284;28;20041;-73
2022/04/07 02:49:40;;;;;;;9.45;2.92;;;;;;;8.75;84.79;98803.06;5041432;28;20033;-73
2022/04/07 02:52:10;;;;;;;12.75;3.70;;;;;;;8.77;84.89;98785.03;5046712;28;20041;-72
2022/04/07 02:54:35;;;;;;;17.50;4.18;;;;;;;8.79;85.04;98782.22;5042321;28;20032;-72
2022/04/07 02:57:01;;;;;;;16.08;3.85;;;;;;;8.78;84.67;98778.66;5037091;28;20029;-72
2022/04/07 02:59:26;;;;;;;17.50;3.97;;;;;;;8.80;84.33;98782.06;5042781;28;20408;-72
2022/04/07 03:01:53;;;;;;;14.55;3.95;;;;;;;8.80;84.72;98774.03;5051482;28;20044;-72
2022/04/07 03:04:18;;;;;;;11.15;3.35;;;;;;;8.82;84.61;98771.19;5051101;28;20021;-72
2022/04/07 03:06:43;;;;;;;14.18;4.10;;;;;;;8.83;84.18;98757.63;5041619;28;20114;-72
2022/04/07 03:09:09;;;;;;;16.92;3.47;;;;;;;8.84;84.50;98758.47;5045885;28;20082;-72
2022/04/07 03:11:34;;;;;;;13.35;3.15;;;;;;;8.85;83.81;98746.78;5050026;28;20040;-72
2022/04/07 03:13:59;;;;;;;12.52;3.45;;;;;;;8.87;83.51;98736.72;5049462;28;20384;-72
2022/04/07 03:16:24;;;;;;;10.00;3.03;;;;;;;8.90;83.45;98739.09;5051494;28;20029;-72
2022/04/07 03:18:50;;;;;;;17.90;3.95;;;;;;;8.91;83.67;98730.06;5040720;28;20051;-72
2022/04/07 03:21:15;;;;;;;11.52;3.33;;;;;;;8.91;83.38;98714.84;5050066;28;20037;-72
2022/04/07 03:23:40;;;;;;;15.43;3.50;;;;;;;8.93;83.07;98712.00;5050176;28;20024;-72
2022/04/07 03:26:06;;;;;;;15.18;3.40;;;;;;;8.93;83.04;98706.63;5050953;28;20033;-72
2022/04/07 03:28:31;;;;;;;14.35;3.83;;;;;;;8.94;83.01;98712.84;5048724;28;20029;-72
2022/04/07 03:30:56;;;;;;;12.88;3.33;;;;;;;8.94;82.13;98702.97;5051045;28;20095;-72
2022/04/07 03:33:22;;;;;;;16.35;4.05;;;;;;;8.95;82.35;98715.38;5035215;28;20045;-73
2022/04/07 03:35:47;;;;;;;10.68;3.50;;;;;;;8.96;82.32;98703.69;5048815;28;20056;-73
2022/04/07 03:38:13;;;;;;;14.90;3.42;;;;;;;8.97;81.77;98697.31;5040308;28;20025;-73
2022/04/07 03:40:38;;;;;;;14.57;3.70;;;;;;;8.97;81.87;98705.34;5049347;28;20028;-73
2022/04/07 03:43:03;;;;;;;12.23;3.25;;;;;;;8.97;81.89;98697.31;5039727;28;20381;-73
2022/04/07 03:45:29;;;;;;;12.55;3.67;;;;;;;8.97;82.15;98681.22;5044625;28;20102;-73
2022/04/07 03:47:55;;;;;;;17.52;3.85;;;;;;;8.98;82.05;98695.47;5042667;28;20159;-73
2022/04/07 03:50:20;;;;;;;18.20;4.18;;;;;;;8.98;81.80;98680.22;5050132;28;20102;-73
2022/04/07 03:52:45;;;;;;;17.98;3.88;;;;;;;9.00;81.85;98675.56;5049522;28;20064;-73
2022/04/07 03:55:11;;;;;;;11.90;3.20;;;;;;;8.99;81.86;98671.22;5042983;28;20377;-73
2022/04/07 03:57:36;;;;;;;15.25;3.30;;;;;;;9.00;82.17;98661.31;5041915;28;20033;-73
2022/04/07 04:00:04;;;;;;;12.60;3.15;;;;;;;8.98;81.91;98661.47;5062344;28;20028;-73
2022/04/07 04:02:29;;;;;;;13.02;3.58;;;;;;;8.99;81.74;98643.56;5046408;28;20025;-73
2022/04/07 04:04:54;;;;;;;18.67;3.85;;;;;;;8.98;81.61;98634.69;5043679;28;20083;-73
2022/04/07 04:07:19;;;;;;;13.52;3.10;;;;;;;8.99;81.62;98616.75;5047559;28;20095;-73
2022/04/07 04:09:45;;;;;;;12.05;3.15;;;;;;;8.99;81.53;98627.47;5049189;28;20053;-73
2022/04/07 04:12:10;;;;;;;14.77;3.40;;;;;;;8.98;81.15;98605.22;5049796;28;20021;-73
2022/04/07 04:14:36;;;;;;;10.85;3.28;;;;;;;8.98;82.01;98599.88;5047614;28;20025;-73
2022/04/07 04:17:02;;;;;;;10.88;3.10;;;;;;;8.98;81.67;98582.97;5045352;28;20519;-73
2022/04/07 04:19:28;;;;;;;11.02;3.05;;;;;;;8.99;81.58;98582.81;5049894;28;20025;-73
2022/04/07 04:21:53;;;;;;;12.63;3.22;;;;;;;8.98;81.77;98556.16;5038745;28;20028;-73
2022/04/07 04:24:18;;;;;;;14.10;3.20;;;;;;;8.98;81.42;98535.56;5038872;28;20029;-73
2022/04/07 04:26:44;;;;;;;13.07;3.15;;;;;;;8.98;81.29;98546.28;5047989;28;20031;-73
2022/04/07 04:29:09;;;;;;;9.60;2.75;;;;;;;8.98;81.40;98535.56;5043546;28;20079;-72
2022/04/07 04:31:34;;;;;;;10.82;2.55;;;;;;;9.01;81.01;98532.56;5034280;28;20447;-72
2022/04/07 04:34:00;;;;;;;6.97;2.55;;;;;;;9.00;81.12;98546.94;5045431;28;20049;-72
2022/04/07 04:36:25;;;;;;;10.02;2.92;;;;;;;9.01;80.92;98543.28;5047444;28;20029;-72
2022/04/07 04:38:51;;;;;;;9.88;2.88;;;;;;;9.03;81.01;98527.03;5049192;28;20107;-72
2022/04/07 04:41:16;;;;;;;10.82;2.55;;;;;;;9.02;81.18;98520.84;5046136;28;20499;-72
2022/04/07 04:43:41;;;;;;;6.72;2.67;;;;;;;9.03;81.58;98519.00;5045131;28;20431;-72
2022/04/07 04:46:07;;;;;;;8.65;2.72;;;;;;;9.04;82.30;98529.56;5050000;28;20511;-72
2022/04/07 04:48:38;;;;;;;8.70;3.03;;;;;;;9.04;82.87;98508.13;5040916;28;20034;-72
2022/04/07 04:51:03;;;;;;;5.93;2.47;;;;;;;9.02;83.67;98511.97;5029147;28;20029;-72
2022/04/07 04:53:29;;;;;;;9.60;2.38;;;;;;;9.01;84.26;98486.19;5044986;28;20024;-72
2022/04/07 04:55:54;;;;;;;8.13;2.55;;;;;;;9.00;84.72;98476.47;5049115;28;20029;-72
2022/04/07 04:58:19;;;;;;;7.55;2.30;;;;;;;8.97;85.05;98484.81;5033634;28;20068;-72
2022/04/07 05:00:45;;;;;;;9.35;2.40;;;;;;;8.95;85.54;98465.41;5038410;28;20039;-72
2022/04/07 05:03:10;;;;;;;8.02;2.08;;;;;;;8.94;86.09;98461.88;5048581;28;20066;-73
2022/04/07 05:05:35;;;;;;;6.53;1.70;;;;;;;8.92;85.90;98447.81;5051977;28;20028;-72
2022/04/07 05:08:01;;;;;;;6.78;2.58;;;;;;;8.89;86.10;98440.09;5049887;28;20033;-73
2022/04/07 05:10:27;;;;;;;6.32;2.13;;;;;;;8.88;86.09;98438.41;5052735;28;20041;-73
2022/04/07 05:12:52;;;;;;;5.55;1.85;;;;;;;8.86;86.88;98437.75;5051639;28;20410;-72
2022/04/07 05:15:18;;;;;;;7.85;2.08;;;;;;;8.86;86.26;98437.75;5052743;28;20114;-72
2022/04/07 05:17:50;;;;;;;5.90;2.20;;;;;;;8.84;86.48;98435.19;5049981;28;20025;-72
2022/04/07 05:20:16;;;;;;;4.85;2.13;;;;;;;8.84;86.83;98431.69;5050966;28;20431;-72
2022/04/07 05:22:41;;;;;;;6.78;2.42;;;;;;;8.83;86.76;98419.28;5039544;28;20028;-72
2022/04/07 05:25:08;;;;;;;6.88;2.58;;;;;;;8.81;87.14;98416.78;5050592;28;20025;-72
2022/04/07 05:27:36;;;;;;;8.07;2.38;;;;;;;8.80;87.47;98406.22;5052284;28;20033;-72
2022/04/07 05:30:10;;;;;;;10.15;2.60;;;;;;;8.79;87.76;98391.19;5052065;28;20021;-72
2022/04/07 05:32:35;;;;;;;7.18;2.60;;;;;;;8.77;88.05;98390.47;5045930;28;20032;-73
2022/04/07 05:35:00;;;;;;;11.65;2.75;;;;;;;8.76;88.34;98395.00;5053260;28;20033;-73
2022/04/07 05:37:26;;;;;;;9.57;3.30;;;;;;;8.73;89.56;98392.66;5038570;28;20029;-73
2022/04/07 05:39:54;;;;;;;6.35;2.30;;;;;;;8.68;90.68;98379.75;5051204;28;20067;-73
2022/04/07 05:42:19;;;;;;;4.90;2.25;;;;;;;8.64;91.51;98380.22;5049090;28;20498;-73
2022/04/07 05:44:44;;;;;;;10.52;3.05;;;;;;;8.59;92.05;98369.16;5049022;28;20033;-73
2022/04/07 05:47:10;;;;;;;11.10;2.65;;;;;;;8.55;92.71;98364.13;5041608;28;20086;-73
2022/04/07 05:49:36;;;;;;;8.90;3.17;;;;;;;8.51;93.18;98367.28;5048166;28;20108;-72
2022/04/07 05:52:03;;;;;;;11.45;2.92;;;;;;;8.47;93.18;98340.00;5049806;28;20032;-73
2022/04/07 05:54:29;;;;;;;12.27;3.20;;;;;;;8.45;93.30;98325.94;5053113;28;20056;-73
2022/04/07 05:56:54;;;;;;;14.05;3.80;;;;;;;8.44;93.58;98324.25;5057630;28;20113;-72
2022/04/07 05:59:19;;;;;;;13.25;3.60;;;;;;;8.42;94.10;98314.69;5046949;28;20552;-71
2022/04/07 06:01:45;;;;;;;14.20;3.83;;;;;;;8.40;93.73;98313.03;5041830;28;20043;-71
2022/04/07 06:04:10;;;;;;;11.38;3.30;;;;;;;8.39;94.07;98307.84;5049320;28;20148;-71
2022/04/07 06:06:35;;;;;;;10.23;3.28;;;;;;;8.38;93.61;98304.28;5032709;28;20493;-73
2022/04/07 06:09:01;;;;;;;10.90;3.53;;;;;;;8.36;94.43;98298.28;5054594;28;20070;-72
2022/04/07 06:11:26;;;;;;;11.82;3.45;;;;;;;8.33;94.37;98293.25;5053148;28;20025;-72
2022/04/07 06:13:51;;;;;;;14.48;4.38;;;;;;;8.32;93.86;98290.75;5052541;28;20055;-72
2022/04/07 06:16:16;;;;;;;15.95;3.55;;;;;;;8.31;93.88;98278.34;5049644;28;20032;-74
2022/04/07 06:18:42;;;;;;;10.30;3.40;;;;;;;8.31;93.99;98276.50;5049600;28;20298;-73
2022/04/07 06:21:07;;;;;;;8.88;3.40;;;;;;;8.30;93.92;98268.63;5049134;28;20029;-73
2022/04/07 06:23:32;;;;;;;11.82;3.45;;;;;;;8.28;94.25;98263.44;5044199;28;20078;-73
2022/04/07 06:25:58;;;;;;;13.73;3.55;;;;;;;8.28;94.25;98262.63;5046523;28;20017;-74
2022/04/07 06:28:23;;;;;;;9.63;3.25;;;;;;;8.26;94.64;98252.06;5046606;28;20048;-73
2022/04/07 06:30:54;;;;;;;12.93;3.50;;;;;;;8.28;94.79;98251.91;5049011;28;20025;-73
2022/04/07 06:33:21;;;;;;;13.75;2.58;;;;;;;8.25;94.69;98253.06;5050366;28;20079;-73
2022/04/07 06:35:48;;;;;;;12.32;3.00;;;;;;;8.24;95.11;98232.66;5050670;28;20475;-73
2022/04/07 06:38:13;;;;;;;12.95;3.08;;;;;;;8.25;94.91;98228.16;5031526;28;20398;-73
2022/04/07 06:40:38;;;;;;;10.55;2.53;;;;;;;8.23;95.14;98221.13;5043900;28;20032;-73
2022/04/07 06:43:04;;;;;;;13.48;2.92;;;;;;;8.22;95.12;98202.56;5048865;28;20033;-74
2022/04/07 06:45:29;;;;;;;9.38;2.83;;;;;;;8.20;95.14;98202.72;5048492;28;20087;-74
2022/04/07 06:47:55;;;;;;;8.50;2.50;;;;;;;8.21;95.80;98193.72;5050249;28;20033;-74
2022/04/07 06:50:21;;;;;;;9.52;2.42;;;;;;;8.22;95.77;98173.13;5050238;28;20412;-74
2022/04/07 06:52:47;;;;;;;13.63;2.33;;;;;;;8.22;96.09;98175.81;5049875;28;20024;-74
2022/04/07 06:55:14;;;;;;;11.80;2.53;;;;;;;8.21;95.62;98158.94;5050540;28;20040;-73
2022/04/07 06:57:54;;;;;;;11.40;2.65;;;;;;;8.21;95.38;98168.78;5044375;28;20605;-73
2022/04/07 07:00:21;;;;;;;10.30;2.17;;;;;;;8.19;95.56;98152.88;5049877;28;20495;-73
2022/04/07 07:02:48;;;;;;;10.55;2.58;;;;;;;8.19;96.56;98144.84;5049759;28;20353;-73
2022/04/07 07:05:14;;;;;;;6.85;2.60;;;;;;;8.19;96.34;98133.31;5048712;28;20013;-73
2022/04/07 07:07:39;;;;;;;13.00;3.08;;;;;;;8.19;96.58;98130.66;5048756;28;20466;-73
2022/04/07 07:10:04;;;;;;;11.95;2.85;;;;;;;8.18;96.92;98126.28;5049317;28;20053;-75
2022/04/07 07:12:30;;;;;;;7.78;2.25;;;;;;;8.17;97.12;98109.41;5031593;28;20073;-75
2022/04/07 07:14:55;;;;;;;12.68;2.80;;;;;;;8.18;97.51;98099.53;5048573;28;20503;-75
2022/04/07 07:17:20;;;;;;;16.02;2.67;;;;;;;8.18;97.98;98083.50;5049345;28;20051;-75
2022/04/07 07:19:45;;;;;;;9.73;2.55;;;;;;;8.20;97.65;98081.50;5047897;28;20031;-75
2022/04/07 07:22:10;;;;;;;14.48;3.08;;;;;;;8.17;98.24;98071.97;5049251;28;20037;-75
2022/04/07 07:24:36;;;;;;;8.45;2.55;;;;;;;8.17;98.50;98066.59;5049103;28;20522;-75
2022/04/07 07:27:01;;;;;;;6.60;2.17;;;;;;;8.17;98.79;98047.88;5049253;28;20408;-75
2022/04/07 07:29:26;;;;;;;6.82;2.35;;;;;;;8.18;98.87;98030.81;5049499;28;20055;-75
2022/04/07 07:31:51;;;;;;;10.20;2.40;;;;;;;8.20;98.90;98033.34;5049885;28;20119;-75
2022/04/07 07:34:17;;;;;;;5.47;1.90;;;;;;;8.24;99.10;98037.34;5049339;28;20051;-75
2022/04/07 07:36:42;;;;;;;6.60;2.30;;;;;;;8.27;99.25;98039.66;5048921;28;20064;-75
2022/04/07 07:39:08;;;;;;;10.60;2.63;;;;;;;8.31;99.23;98016.94;5047492;28;20032;-75
2022/04/07 07:41:33;;;;;;;10.45;2.55;;;;;;;8.32;99.87;98021.28;5047260;28;20021;-75
2022/04/07 07:43:59;;;;;;;10.27;2.50;;;;;;;8.36;99.67;98030.66;5031521;28;20044;-75
2022/04/07 07:46:24;;;;;;;8.13;2.20;;;;;;;8.40;100.00;98138.19;5048698;28;20099;-75
2022/04/07 07:48:50;;;;;;;17.73;2.42;;;;;;;8.10;93.59;98217.25;5048531;28;20026;-75
2022/04/07 07:51:16;;;;;;;6.85;1.35;;;;;;;7.53;94.88;98221.31;5049655;28;20089;-74
2022/04/07 07:53:44;;;;;;;2.72;0.90;;;;;;;7.10;96.42;98226.53;5049159;28;20068;-74
2022/04/07 07:56:09;;;;;;;4.22;1.02;;;;;;;6.78;97.35;98225.25;5049479;28;20098;-75
2022/04/07 07:58:35;;;;;;;5.43;1.23;;;;;;;6.54;98.45;98223.19;5048858;28;20103;-74
2022/04/07 08:01:00;;;;;;;7.28;1.45;;;;;;;6.39;98.70;98206.03;5048352;28;20772;-74
2022/04/07 08:03:25;;;;;;;2.80;1.00;;;;;;;6.28;99.44;98202.59;5051653;28;20029;-74
2022/04/07 08:05:51;;;;;;;3.83;1.38;;;;;;;6.23;100.00;98201.38;5049487;28;20035;-74
2022/04/07 08:08:16;;;;;;;3.50;1.27;;;;;;;6.14;100.00;98184.44;5049378;28;20395;-74
2022/04/07 08:10:41;;;;;;;9.40;1.80;;;;;;;6.15;100.00;98199.47;5045140;28;20029;-75
2022/04/07 08:13:07;;;;;;;5.60;1.45;;;;;;;6.15;100.00;98186.13;5045440;28;20067;-75
2022/04/07 08:15:34;;;;;;;7.70;1.60;;;;;;;6.14;100.00;98172.94;5046565;28;20045;-75
2022/04/07 08:17:59;;;;;;;6.57;1.63;;;;;;;6.14;100.00;98175.59;5050475;28;20029;-74
2022/04/07 08:20:24;;;;;;;10.90;1.98;;;;;;;6.19;100.00;98190.13;5049667;28;20041;-74
2022/04/07 08:22:50;;;;;;;8.32;1.83;;;;;;;6.26;100.00;98185.06;5049275;28;20025;-74
2022/04/07 08:25:15;;;;;;;7.25;1.42;;;;;;;6.30;100.00;98179.28;5049836;28;20056;-74
2022/04/07 08:27:40;;;;;;;4.95;1.17;;;;;;;6.36;100.00;98179.66;5050513;28;20389;-74
2022/04/07 08:30:06;;;;;;;8.23;1.83;;;;;;;6.43;100.00;98170.06;5050704;28;20025;-74
2022/04/07 08:32:33;;;;;;;4.65;1.38;;;;;;;6.45;100.00;98170.75;5049285;28;20164;-74
2022/04/07 08:34:59;;;;;;;2.75;1.30;;;;;;;6.54;100.00;98175.16;5050581;28;20039;-75
2022/04/07 08:37:25;;;;;;;6.28;1.42;;;;;;;6.63;100.00;98192.94;5050793;28;20103;-75
2022/04/07 08:39:53;;;;;;;4.00;1.35;;;;;;;6.73;100.00;98178.66;5052578;28;20025;-75
2022/04/07 08:42:22;;;;;;;7.90;1.65;;;;;;;6.79;100.00;98172.69;5054397;28;20032;-75
2022/04/07 08:44:47;;;;;;;9.00;1.85;;;;;;;6.81;100.00;98166.22;5053965;28;20025;-75
2022/04/07 08:47:15;;;;;;;9.93;2.17;;;;;;;6.91;100.00;98154.59;5052532;28;20021;-75
2022/04/07 08:49:42;;;;;;;6.43;1.85;;;;;;;7.02;100.00;98151.69;5054368;28;20037;-75
2022/04/07 08:52:08;;;;;;;11.07;2.13;;;;;;;7.10;100.00;98158.91;5054296;28;20120;-75
2022/04/07 08:54:33;;;;;;;11.63;2.70;;;;;;;7.17;100.00;98165.31;5052879;28;20116;-75
2022/04/07 08:56:59;;;;;;;12.70;2.95;;;;;;;7.27;100.00;98165.22;5054187;28;20057;-75
2022/04/07 08:59:24;;;;;;;10.38;2.35;;;;;;;7.39;100.00;98173.78;5053791;28;20043;-75
2022/04/07 09:01:49;;;;;;;10.38;3.00;;;;;;;7.50;100.00;98160.16;5036220;28;20476;-75
2022/04/07 09:04:15;;;;;;;12.98;2.70;;;;;;;7.54;100.00;98148.16;5053955;28;20033;-75
2022/04/07 09:06:41;;;;;;;7.45;2.67;;;;;;;7.65;100.00;98155.88;5053942;28;20408;-75
2022/04/07 09:09:22;;;;;;;11.07;3.20;;;;;;;7.72;100.00;98163.25;5051806;28;20512;-75
2022/04/07 09:11:52;;;;;;;7.25;2.42;;;;;;;7.78;100.00;98173.31;5053212;28;20029;-75
2022/04/07 09:14:18;;;;;;;11.70;2.78;;;;;;;7.78;100.00;98159.94;5053692;28;20036;-75
2022/04/07 09:16:43;;;;;;;8.25;3.08;;;;;;;7.80;100.00;98164.13;5053970;28;20032;-75
2022/04/07 09:19:09;;;;;;;7.88;2.60;;;;;;;7.88;100.00;98163.34;5053088;28;20036;-75
2022/04/07 09:21:35;;;;;;;12.95;3.03;;;;;;;8.00;100.00;98171.91;5053070;28;20070;-75
2022/04/07 09:24:05;;;;;;;8.13;3.03;;;;;;;8.08;100.00;98165.72;5052369;28;20025;-75
2022/04/07 09:26:31;;;;;;;;;;;;;;;8.17;100.00;98170.09;5054083;28;20047;-75
2022/04/07 09:28:57;;;;;;;10.40;3.80;;;;;;;8.34;100.00;98149.56;5053406;28;19909;-75
2022/04/07 09:31:22;;;;;;;14.80;4.18;;;;;;;8.43;100.00;98169.16;5052260;28;20037;-75
2022/04/07 09:33:56;;;;;;;15.07;5.10;;;;;;;8.50;100.00;98164.84;5051659;28;20041;-75
2022/04/07 09:36:23;;;;;;;14.60;5.22;;;;;;;8.64;100.00;98188.28;5052728;28;20028;-75
2022/04/07 09:38:53;;;;;;;15.18;4.97;;;;;;;8.71;100.00;98186.63;5053268;28;20032;-75
2022/04/07 09:41:21;;;;;;;;;;;;;;;8.77;100.00;98189.63;5052044;28;20025;-74
2022/04/07 09:43:51;;;;;;;12.15;3.97;;;;;;;8.80;97.57;98175.91;5047286;28;20013;-74
2022/04/07 09:46:18;;;;;;;9.82;3.30;;;;;;;8.87;95.62;98180.44;5051071;28;20020;-74
2022/04/07 09:49:07;;;;;;;9.88;3.03;;;;;;;8.94;94.60;98172.56;5053313;28;20033;-74
2022/04/07 09:51:48;;;;;;;20.63;3.92;;;;;;;8.98;93.64;98186.47;5051974;28;20469;-74
2022/04/07 09:54:15;;;;;;;9.63;3.67;;;;;;;9.00;88.66;98168.38;5052823;28;20040;-74
2022/04/07 09:56:42;;;;;;;9.93;2.80;;;;;;;9.06;89.65;98184.63;5051500;28;20111;-74
2022/04/07 09:59:08;;;;;;;8.07;2.80;;;;;;;9.09;87.02;98172.72;5052902;28;20112;-74
2022/04/07 10:01:35;;;;;;;12.80;2.92;;;;;;;9.04;83.20;98178.56;5051434;28;20543;-74
2022/04/07 10:04:02;;;;;;;11.82;3.00;;;;;;;9.02;86.38;98185.09;5052942;28;20057;-75
2022/04/07 10:06:31;;;;;;;13.55;3.75;;;;;;;9.02;84.01;98183.28;5035048;28;20025;-75
2022/04/07 10:08:59;;;;;;;14.68;3.10;;;;;;;9.05;84.85;98193.66;5052310;28;20057;-75
2022/04/07 10:11:25;;;;;;;8.70;3.22;;;;;;;9.03;83.88;98194.81;5050758;28;20082;-75
2022/04/07 10:13:50;;;;;;;16.35;4.03;;;;;;;9.04;83.42;98205.38;5052436;28;20025;-75
2022/04/07 10:16:16;;;;;;;6.45;2.38;;;;;;;9.11;79.58;98205.56;5050867;28;20036;-75
2022/04/07 10:19:01;;;;;;;10.13;2.75;;;;;;;9.24;78.93;98199.69;5051319;28;20568;-75
2022/04/07 10:21:45;;;;;;;7.28;1.85;;;;;;;9.44;75.32;98208.19;5043547;28;20037;-75
2022/04/07 10:24:28;;;;;;;7.32;2.63;;;;;;;9.60;76.22;98197.44;5051543;28;20033;-75
2022/04/07 10:26:54;;;;;;;8.68;2.55;;;;;;;9.70;75.11;98202.59;5052026;28;20120;-75
2022/04/07 10:29:23;;;;;;;8.80;2.55;;;;;;;9.78;74.31;98209.75;5050914;28;20025;-75
2022/04/07 10:32:10;;;;;;;15.18;3.42;;;;;;;9.89;76.76;98197.84;5052361;28;20070;-75
2022/04/07 10:34:35;;;;;;;9.73;2.92;;;;;;;9.98;73.95;98191.41;5050530;28;20036;-75
2022/04/07 10:37:08;;;;;;;13.07;2.75;;;;;;;10.05;74.24;98215.72;5050818;28;20035;-75
2022/04/07 10:39:33;;;;;;;9.80;2.42;;;;;;;10.10;74.28;98222.25;5052307;28;20025;-75
2022/04/07 10:41:59;;;;;;;10.77;2.78;;;;;;;10.14;71.81;98233.44;5051528;28;20108;-75
2022/04/07 10:44:26;;;;;;;12.90;2.65;;;;;;;10.13;73.66;98239.81;5051495;28;20027;-75
2022/04/07 10:47:02;;;;;;;7.45;2.05;;;;;;;10.11;71.27;98261.47;5047598;28;20031;-75
2022/04/07 10:49:29;;;;;;;12.20;2.25;;;;;;;10.02;70.21;98259.84;5039743;28;20052;-74
2022/04/07 10:52:02;;;;;;;10.68;2.08;;;;;;;9.95;69.01;98256.16;5040910;28;20025;-75
2022/04/07 10:54:28;;;;;;;9.18;2.58;;;;;;;9.92;68.49;98251.16;5051698;28;20029;-75
2022/04/07 10:56:56;;;;;;;14.30;2.45;;;;;;;10.01;69.07;98260.00;5051902;28;20103;-75
2022/04/07 10:59:27;;;;;;;14.90;3.00;;;;;;;10.13;69.55;98267.53;5048755;28;20043;-75
2022/04/07 11:02:12;;;;;;;14.02;3.08;;;;;;;10.21;67.77;98255.91;5041542;28;20041;-75
2022/04/07 11:04:56;;;;;;;10.05;2.30;;;;;;;10.15;66.38;98284.28;5050681;28;20048;-74
2022/04/07 11:07:22;;;;;;;13.98;2.42;;;;;;;10.18;66.90;98274.22;5051562;28;20032;-74
2022/04/07 11:09:57;;;;;;;12.13;2.42;;;;;;;10.19;64.48;98286.59;5051466;28;20052;-74
2022/04/07 11:12:40;;;;;;;11.90;2.38;;;;;;;10.27;66.15;98281.22;5051558;28;20021;-74
2022/04/07 11:15:05;;;;;;;17.45;2.75;;;;;;;10.30;66.36;98295.13;5051755;28;20130;-73
2022/04/07 11:17:43;;;;;;;17.85;3.22;;;;;;;10.40;67.63;98292.25;5050199;28;20025;-74
2022/04/07 11:20:25;;;;;;;10.38;2.15;;;;;;;10.52;66.21;98308.81;5051719;28;20037;-73
2022/04/07 11:23:05;;;;;;;11.90;2.40;;;;;;;10.56;66.28;98277.09;5051178;28;20063;-73
2022/04/07 11:25:32;;;;;;;10.88;2.38;;;;;;;10.60;66.85;98310.63;5051485;28;20021;-73
2022/04/07 11:28:17;;;;;;;17.98;2.83;;;;;;;10.64;66.02;98326.25;5049631;28;20528;-73
2022/04/07 11:30:52;;;;;;;8.18;2.35;;;;;;;10.63;63.70;98331.75;5049639;28;20044;-73
2022/04/07 11:33:20;;;;;;;18.63;3.38;;;;;;;10.55;60.77;98331.81;5051209;28;20445;-73
2022/04/07 11:36:00;;;;;;;12.00;3.17;;;;;;;10.44;61.85;98339.25;5050247;28;20036;-73